sensor_id;sensor_type;location;lat;lon;timestamp;temperature;humidity
21522;DHT22;10922;45.572;10.002;2023-02-03T00:01:34;8.90;99.90
21522;DHT22;10922;45.572;10.002;2023-02-03T00:04:00;9.00;99.90
21522;DHT22;10922;45.572;10.002;2023-02-03T00:06:26;9.00;99.90
21522;DHT22;10922;45.572;10.002;2023-02-03T00:08:56;9.20;99.90
21522;DHT22;10922;45.572;10.002;2023-02-03T00:11:25;9.30;99.90
21522;DHT22;10922;45.572;10.002;2023-02-03T00:13:51;9.40;99.90
21522;DHT22;10922;45.572;10.002;2023-02-03T00:16:16;9.10;99.90
21522;DHT22;10922;45.572;10.002;2023-02-03T00:18:42;9.20;99.90
21522;DHT22;10922;45.572;10.002;2023-02-03T00:21:08;9.60;99.90
21522;DHT22;10922;45.572;10.002;2023-02-03T00:23:33;9.70;99.90
21522;DHT22;10922;45.572;10.002;2023-02-03T00:26:14;9.50;99.90
21522;DHT22;10922;45.572;10.002;2023-02-03T00:28:40;9.70;99.90
21522;DHT22;10922;45.572;10.002;2023-02-03T00:31:14;9.80;99.90
21522;DHT22;10922;45.572;10.002;2023-02-03T00:33:40;9.70;99.90
21522;DHT22;10922;45.572;10.002;2023-02-03T00:36:06;9.60;99.90
21522;DHT22;10922;45.572;10.002;2023-02-03T00:38:32;9.80;99.90
21522;DHT22;10922;45.572;10.002;2023-02-03T00:40:57;9.80;99.90
21522;DHT22;10922;45.572;10.002;2023-02-03T00:43:23;9.40;99.90
21522;DHT22;10922;45.572;10.002;2023-02-03T00:45:48;9.20;99.90
21522;DHT22;10922;45.572;10.002;2023-02-03T00:48:14;9.10;99.90
21522;DHT22;10922;45.572;10.002;2023-02-03T00:50:40;9.00;99.90
21522;DHT22;10922;45.572;10.002;2023-02-03T00:53:05;9.10;99.90
21522;DHT22;10922;45.572;10.002;2023-02-03T00:55:31;9.30;99.90
21522;DHT22;10922;45.572;10.002;2023-02-03T00:57:57;9.40;99.90
21522;DHT22;10922;45.572;10.002;2023-02-03T01:00:23;9.40;99.90
21522;DHT22;10922;45.572;10.002;2023-02-03T01:02:48;9.40;99.90
21522;DHT22;10922;45.572;10.002;2023-02-03T01:05:14;9.40;99.90
21522;DHT22;10922;45.572;10.002;2023-02-03T01:07:41;9.40;99.90
21522;DHT22;10922;45.572;10.002;2023-02-03T01:10:07;9.00;99.90
21522;DHT22;10922;45.572;10.002;2023-02-03T01:12:33;8.80;99.90
21522;DHT22;10922;45.572;10.002;2023-02-03T01:14:59;8.80;99.90
21522;DHT22;10922;45.572;10.002;2023-02-03T01:17:25;8.60;99.90
21522;DHT22;10922;45.572;10.002;2023-02-03T01:19:51;8.40;99.90
21522;DHT22;10922;45.572;10.002;2023-02-03T01:22:17;8.60;99.90
21522;DHT22;10922;45.572;10.002;2023-02-03T01:24:43;8.70;99.90
21522;DHT22;10922;45.572;10.002;2023-02-03T01:27:08;8.30;99.90
21522;DHT22;10922;45.572;10.002;2023-02-03T01:29:35;8.20;99.90
21522;DHT22;10922;45.572;10.002;2023-02-03T01:32:00;8.10;99.90
21522;DHT22;10922;45.572;10.002;2023-02-03T01:34:26;8.10;99.90
21522;DHT22;10922;45.572;10.002;2023-02-03T01:36:51;8.20;99.90
21522;DHT22;10922;45.572;10.002;2023-02-03T01:39:18;8.20;99.90
21522;DHT22;10922;45.572;10.002;2023-02-03T01:41:43;8.20;99.90
21522;DHT22;10922;45.572;10.002;2023-02-03T01:44:34;8.20;99.90
21522;DHT22;10922;45.572;10.002;2023-02-03T01:47:00;8.30;99.90
21522;DHT22;10922;45.572;10.002;2023-02-03T01:49:32;8.40;99.90
21522;DHT22;10922;45.572;10.002;2023-02-03T01:51:59;8.50;99.90
21522;DHT22;10922;45.572;10.002;2023-02-03T01:54:29;8.60;99.90
21522;DHT22;10922;45.572;10.002;2023-02-03T01:57:00;8.60;99.90
21522;DHT22;10922;45.572;10.002;2023-02-03T01:59:29;8.50;99.90
21522;DHT22;10922;45.572;10.002;2023-02-03T02:01:56;8.80;99.90
21522;DHT22;10922;45.572;10.002;2023-02-03T02:04:25;8.80;99.90
21522;DHT22;10922;45.572;10.002;2023-02-03T02:06:55;9.10;99.90
21522;DHT22;10922;45.572;10.002;2023-02-03T02:09:23;9.10;99.90
21522;DHT22;10922;45.572;10.002;2023-02-03T02:11:48;9.30;99.90
21522;DHT22;10922;45.572;10.002;2023-02-03T02:14:14;8.90;99.90
21522;DHT22;10922;45.572;10.002;2023-02-03T02:17:04;8.90;99.90
21522;DHT22;10922;45.572;10.002;2023-02-03T02:20:08;8.80;99.90
21522;DHT22;10922;45.572;10.002;2023-02-03T02:25:47;8.90;99.90
21522;DHT22;10922;45.572;10.002;2023-02-03T02:33:41;9.20;99.90
21522;DHT22;10922;45.572;10.002;2023-02-03T02:43:44;9.00;99.90
21522;DHT22;10922;45.572;10.002;2023-02-03T02:46:18;9.00;99.90
21522;DHT22;10922;45.572;10.002;2023-02-03T02:49:02;9.00;99.90
21522;DHT22;10922;45.572;10.002;2023-02-03T02:51:30;9.20;99.90
21522;DHT22;10922;45.572;10.002;2023-02-03T02:54:01;9.30;99.90
21522;DHT22;10922;45.572;10.002;2023-02-03T02:56:29;9.50;99.90
21522;DHT22;10922;45.572;10.002;2023-02-03T02:58:58;9.60;99.90
21522;DHT22;10922;45.572;10.002;2023-02-03T03:01:26;9.60;99.90
21522;DHT22;10922;45.572;10.002;2023-02-03T03:03:52;9.30;99.90
21522;DHT22;10922;45.572;10.002;2023-02-03T03:06:25;9.00;99.90
21522;DHT22;10922;45.572;10.002;2023-02-03T03:09:09;9.00;99.90
21522;DHT22;10922;45.572;10.002;2023-02-03T03:11:42;8.90;99.90
21522;DHT22;10922;45.572;10.002;2023-02-03T03:14:10;8.90;99.90
21522;DHT22;10922;45.572;10.002;2023-02-03T03:16:38;8.90;99.90
21522;DHT22;10922;45.572;10.002;2023-02-03T03:19:09;9.10;99.90
21522;DHT22;10922;45.572;10.002;2023-02-03T03:21:49;9.20;99.90
21522;DHT22;10922;45.572;10.002;2023-02-03T03:24:23;9.30;99.90
21522;DHT22;10922;45.572;10.002;2023-02-03T03:26:59;9.30;99.90
21522;DHT22;10922;45.572;10.002;2023-02-03T03:29:32;9.50;99.90
21522;DHT22;10922;45.572;10.002;2023-02-03T03:32:00;9.20;99.90
21522;DHT22;10922;45.572;10.002;2023-02-03T03:34:27;9.40;99.90
21522;DHT22;10922;45.572;10.002;2023-02-03T03:37:23;9.20;99.90
21522;DHT22;10922;45.572;10.002;2023-02-03T03:40:11;9.10;99.90
21522;DHT22;10922;45.572;10.002;2023-02-03T03:42:59;8.80;99.90
21522;DHT22;10922;45.572;10.002;2023-02-03T03:45:34;9.10;99.90
21522;DHT22;10922;45.572;10.002;2023-02-03T03:50:37;9.30;99.90
21522;DHT22;10922;45.572;10.002;2023-02-03T03:53:06;9.20;99.90
21522;DHT22;10922;45.572;10.002;2023-02-03T03:55:34;9.00;99.90
21522;DHT22;10922;45.572;10.002;2023-02-03T03:58:09;9.00;99.90
21522;DHT22;10922;45.572;10.002;2023-02-03T04:00:38;9.00;99.90
21522;DHT22;10922;45.572;10.002;2023-02-03T04:03:14;8.50;99.90
21522;DHT22;10922;45.572;10.002;2023-02-03T04:05:40;8.70;99.90
21522;DHT22;10922;45.572;10.002;2023-02-03T04:08:06;8.90;99.90
21522;DHT22;10922;45.572;10.002;2023-02-03T04:10:38;8.80;99.90
21522;DHT22;10922;45.572;10.002;2023-02-03T04:13:05;8.70;99.90
21522;DHT22;10922;45.572;10.002;2023-02-03T04:15:31;8.70;99.90
21522;DHT22;10922;45.572;10.002;2023-02-03T04:17:58;8.60;99.90
21522;DHT22;10922;45.572;10.002;2023-02-03T04:20:29;8.90;99.90
21522;DHT22;10922;45.572;10.002;2023-02-03T04:22:55;8.70;99.90
21522;DHT22;10922;45.572;10.002;2023-02-03T04:25:21;8.90;99.90
21522;DHT22;10922;45.572;10.002;2023-02-03T04:27:47;8.70;99.90
21522;DHT22;10922;45.572;10.002;2023-02-03T04:30:13;8.60;99.90
21522;DHT22;10922;45.572;10.002;2023-02-03T04:32:39;8.60;99.90
21522;DHT22;10922;45.572;10.002;2023-02-03T04:35:06;8.80;99.90
21522;DHT22;10922;45.572;10.002;2023-02-03T04:37:32;8.90;99.90
21522;DHT22;10922;45.572;10.002;2023-02-03T04:39:58;8.70;99.90
21522;DHT22;10922;45.572;10.002;2023-02-03T04:42:23;8.70;99.90
21522;DHT22;10922;45.572;10.002;2023-02-03T04:44:50;8.80;99.90
21522;DHT22;10922;45.572;10.002;2023-02-03T04:47:17;8.70;99.90
21522;DHT22;10922;45.572;10.002;2023-02-03T04:49:43;8.60;99.90
21522;DHT22;10922;45.572;10.002;2023-02-03T04:52:09;8.60;99.90
21522;DHT22;10922;45.572;10.002;2023-02-03T04:54:35;8.60;99.90
21522;DHT22;10922;45.572;10.002;2023-02-03T04:57:00;8.60;99.90
21522;DHT22;10922;45.572;10.002;2023-02-03T04:59:26;8.80;99.90
21522;DHT22;10922;45.572;10.002;2023-02-03T05:01:52;8.80;99.90
21522;DHT22;10922;45.572;10.002;2023-02-03T05:04:17;8.80;99.90
21522;DHT22;10922;45.572;10.002;2023-02-03T05:06:43;8.80;99.90
21522;DHT22;10922;45.572;10.002;2023-02-03T05:09:09;8.40;99.90
21522;DHT22;10922;45.572;10.002;2023-02-03T05:11:35;8.40;99.90
21522;DHT22;10922;45.572;10.002;2023-02-03T05:14:03;8.20;99.90
21522;DHT22;10922;45.572;10.002;2023-02-03T05:16:28;8.30;99.90
21522;DHT22;10922;45.572;10.002;2023-02-03T05:18:54;8.50;99.90
21522;DHT22;10922;45.572;10.002;2023-02-03T05:21:20;8.60;99.90
21522;DHT22;10922;45.572;10.002;2023-02-03T05:23:46;8.20;99.90
21522;DHT22;10922;45.572;10.002;2023-02-03T05:26:11;8.00;99.90
21522;DHT22;10922;45.572;10.002;2023-02-03T05:28:37;8.30;99.90
21522;DHT22;10922;45.572;10.002;2023-02-03T05:31:03;8.20;99.90
21522;DHT22;10922;45.572;10.002;2023-02-03T05:33:29;7.60;99.90
21522;DHT22;10922;45.572;10.002;2023-02-03T05:35:55;7.90;99.90
21522;DHT22;10922;45.572;10.002;2023-02-03T05:38:20;7.80;99.90
21522;DHT22;10922;45.572;10.002;2023-02-03T05:40:48;7.60;99.90
21522;DHT22;10922;45.572;10.002;2023-02-03T05:43:32;7.50;99.90
21522;DHT22;10922;45.572;10.002;2023-02-03T05:46:02;7.20;1.00
21522;DHT22;10922;45.572;10.002;2023-02-03T05:48:28;7.20;99.90
21522;DHT22;10922;45.572;10.002;2023-02-03T05:50:54;7.40;99.90
21522;DHT22;10922;45.572;10.002;2023-02-03T05:53:19;7.40;99.90
21522;DHT22;10922;45.572;10.002;2023-02-03T05:55:45;7.60;99.90
21522;DHT22;10922;45.572;10.002;2023-02-03T05:58:11;7.80;99.90
21522;DHT22;10922;45.572;10.002;2023-02-03T06:00:36;7.70;99.90
21522;DHT22;10922;45.572;10.002;2023-02-03T06:03:03;8.00;99.90
21522;DHT22;10922;45.572;10.002;2023-02-03T06:05:31;8.00;99.90
21522;DHT22;10922;45.572;10.002;2023-02-03T06:07:57;8.00;99.90
21522;DHT22;10922;45.572;10.002;2023-02-03T06:10:23;7.80;99.90
21522;DHT22;10922;45.572;10.002;2023-02-03T06:12:49;7.90;99.90
21522;DHT22;10922;45.572;10.002;2023-02-03T06:15:15;8.00;99.90
21522;DHT22;10922;45.572;10.002;2023-02-03T06:17:44;7.90;99.90
21522;DHT22;10922;45.572;10.002;2023-02-03T06:20:11;8.10;99.90
21522;DHT22;10922;45.572;10.002;2023-02-03T06:22:36;8.10;99.90
21522;DHT22;10922;45.572;10.002;2023-02-03T06:25:02;7.80;99.90
21522;DHT22;10922;45.572;10.002;2023-02-03T06:27:28;7.80;99.90
21522;DHT22;10922;45.572;10.002;2023-02-03T06:29:54;7.90;99.90
21522;DHT22;10922;45.572;10.002;2023-02-03T06:32:20;7.90;99.90
21522;DHT22;10922;45.572;10.002;2023-02-03T06:34:46;8.10;99.90
21522;DHT22;10922;45.572;10.002;2023-02-03T06:37:12;7.80;99.90
21522;DHT22;10922;45.572;10.002;2023-02-03T06:39:38;7.90;99.90
21522;DHT22;10922;45.572;10.002;2023-02-03T06:42:03;7.80;99.90
21522;DHT22;10922;45.572;10.002;2023-02-03T06:44:29;7.80;99.90
21522;DHT22;10922;45.572;10.002;2023-02-03T06:46:55;7.60;99.90
21522;DHT22;10922;45.572;10.002;2023-02-03T06:49:21;7.50;99.90
21522;DHT22;10922;45.572;10.002;2023-02-03T06:51:46;7.50;99.90
21522;DHT22;10922;45.572;10.002;2023-02-03T06:54:13;7.60;99.90
21522;DHT22;10922;45.572;10.002;2023-02-03T06:56:39;7.50;99.90
21522;DHT22;10922;45.572;10.002;2023-02-03T06:59:05;7.20;99.90
21522;DHT22;10922;45.572;10.002;2023-02-03T07:01:31;7.20;99.90
21522;DHT22;10922;45.572;10.002;2023-02-03T07:03:57;7.50;99.90
21522;DHT22;10922;45.572;10.002;2023-02-03T07:06:26;7.60;99.90
21522;DHT22;10922;45.572;10.002;2023-02-03T07:08:55;7.60;99.90
21522;DHT22;10922;45.572;10.002;2023-02-03T07:11:20;7.90;99.90
21522;DHT22;10922;45.572;10.002;2023-02-03T07:13:46;7.90;99.90
21522;DHT22;10922;45.572;10.002;2023-02-03T07:16:12;8.00;99.90
21522;DHT22;10922;45.572;10.002;2023-02-03T07:18:38;8.10;99.90
21522;DHT22;10922;45.572;10.002;2023-02-03T07:21:05;8.10;99.90
21522;DHT22;10922;45.572;10.002;2023-02-03T07:23:31;8.10;99.90
21522;DHT22;10922;45.572;10.002;2023-02-03T07:26:04;7.90;99.90
21522;DHT22;10922;45.572;10.002;2023-02-03T07:28:33;7.70;99.90
21522;DHT22;10922;45.572;10.002;2023-02-03T07:31:00;7.80;99.90
21522;DHT22;10922;45.572;10.002;2023-02-03T07:33:26;8.10;99.90
21522;DHT22;10922;45.572;10.002;2023-02-03T07:35:53;8.20;99.90
21522;DHT22;10922;45.572;10.002;2023-02-03T07:38:18;7.90;99.90
21522;DHT22;10922;45.572;10.002;2023-02-03T07:40:44;8.00;99.90
21522;DHT22;10922;45.572;10.002;2023-02-03T07:43:10;8.30;99.90
21522;DHT22;10922;45.572;10.002;2023-02-03T07:45:35;8.10;99.90
21522;DHT22;10922;45.572;10.002;2023-02-03T07:48:01;7.90;99.90
21522;DHT22;10922;45.572;10.002;2023-02-03T07:50:26;8.10;99.90
21522;DHT22;10922;45.572;10.002;2023-02-03T07:52:52;8.10;99.90
21522;DHT22;10922;45.572;10.002;2023-02-03T07:55:20;8.20;99.90
21522;DHT22;10922;45.572;10.002;2023-02-03T07:57:45;8.30;99.90
21522;DHT22;10922;45.572;10.002;2023-02-03T08:00:12;8.30;99.90
21522;DHT22;10922;45.572;10.002;2023-02-03T08:02:40;8.30;99.90
21522;DHT22;10922;45.572;10.002;2023-02-03T08:05:06;8.30;99.90
21522;DHT22;10922;45.572;10.002;2023-02-03T08:07:31;8.40;99.90
21522;DHT22;10922;45.572;10.002;2023-02-03T08:09:57;8.40;99.90
21522;DHT22;10922;45.572;10.002;2023-02-03T08:12:23;8.30;99.90
21522;DHT22;10922;45.572;10.002;2023-02-03T08:14:48;8.10;99.90
21522;DHT22;10922;45.572;10.002;2023-02-03T08:17:14;8.30;99.90
21522;DHT22;10922;45.572;10.002;2023-02-03T08:19:39;8.40;99.90
21522;DHT22;10922;45.572;10.002;2023-02-03T08:22:05;8.30;99.90
21522;DHT22;10922;45.572;10.002;2023-02-03T08:24:31;8.60;99.90
21522;DHT22;10922;45.572;10.002;2023-02-03T08:26:56;8.60;99.90
21522;DHT22;10922;45.572;10.002;2023-02-03T08:29:22;8.70;99.90
21522;DHT22;10922;45.572;10.002;2023-02-03T08:31:48;8.40;99.90
21522;DHT22;10922;45.572;10.002;2023-02-03T08:34:13;8.10;99.90
21522;DHT22;10922;45.572;10.002;2023-02-03T08:36:39;8.60;1.00
21522;DHT22;10922;45.572;10.002;2023-02-03T08:39:07;8.80;1.00
21522;DHT22;10922;45.572;10.002;2023-02-03T08:41:33;8.90;1.00
21522;DHT22;10922;45.572;10.002;2023-02-03T08:43:59;8.80;1.00
21522;DHT22;10922;45.572;10.002;2023-02-03T08:46:25;8.70;1.00
21522;DHT22;10922;45.572;10.002;2023-02-03T08:48:53;8.90;1.00
21522;DHT22;10922;45.572;10.002;2023-02-03T08:51:21;8.60;1.00
21522;DHT22;10922;45.572;10.002;2023-02-03T08:53:47;8.80;1.00
21522;DHT22;10922;45.572;10.002;2023-02-03T08:56:12;8.90;1.00
21522;DHT22;10922;45.572;10.002;2023-02-03T08:58:38;8.80;1.00
21522;DHT22;10922;45.572;10.002;2023-02-03T09:01:09;8.90;1.00
21522;DHT22;10922;45.572;10.002;2023-02-03T09:03:36;8.80;1.00
21522;DHT22;10922;45.572;10.002;2023-02-03T09:06:02;8.80;1.00
21522;DHT22;10922;45.572;10.002;2023-02-03T09:08:28;8.70;1.00
21522;DHT22;10922;45.572;10.002;2023-02-03T09:10:53;8.60;1.00
21522;DHT22;10922;45.572;10.002;2023-02-03T09:13:19;8.70;1.00
21522;DHT22;10922;45.572;10.002;2023-02-03T09:15:45;8.50;1.00
21522;DHT22;10922;45.572;10.002;2023-02-03T09:18:11;8.70;1.00
21522;DHT22;10922;45.572;10.002;2023-02-03T09:20:36;8.60;1.00
21522;DHT22;10922;45.572;10.002;2023-02-03T09:23:02;8.50;1.00
21522;DHT22;10922;45.572;10.002;2023-02-03T09:25:28;8.50;1.00
21522;DHT22;10922;45.572;10.002;2023-02-03T09:27:53;8.80;1.00
21522;DHT22;10922;45.572;10.002;2023-02-03T09:30:19;8.80;1.00
21522;DHT22;10922;45.572;10.002;2023-02-03T09:32:45;8.60;1.00
21522;DHT22;10922;45.572;10.002;2023-02-03T09:35:14;8.50;1.00
21522;DHT22;10922;45.572;10.002;2023-02-03T09:37:39;8.80;1.00
21522;DHT22;10922;45.572;10.002;2023-02-03T09:40:05;8.70;1.00
21522;DHT22;10922;45.572;10.002;2023-02-03T09:45:25;8.80;1.00
21522;DHT22;10922;45.572;10.002;2023-02-03T09:47:52;8.90;1.00
21522;DHT22;10922;45.572;10.002;2023-02-03T09:50:22;8.80;1.00
21522;DHT22;10922;45.572;10.002;2023-02-03T09:52:49;8.90;1.00
21522;DHT22;10922;45.572;10.002;2023-02-03T09:55:40;9.00;1.00
21522;DHT22;10922;45.572;10.002;2023-02-03T09:58:17;8.80;1.00
21522;DHT22;10922;45.572;10.002;2023-02-03T10:00:52;8.70;1.00
21522;DHT22;10922;45.572;10.002;2023-02-03T10:06:32;8.90;1.00
21522;DHT22;10922;45.572;10.002;2023-02-03T10:12:30;8.90;1.00
21522;DHT22;10922;45.572;10.002;2023-02-03T10:17:46;8.80;1.00
21522;DHT22;10922;45.572;10.002;2023-02-03T10:20:21;9.20;1.00
21522;DHT22;10922;45.572;10.002;2023-02-03T10:22:52;9.20;1.00
21522;DHT22;10922;45.572;10.002;2023-02-03T10:25:26;9.10;1.00
21522;DHT22;10922;45.572;10.002;2023-02-03T10:27:58;9.20;1.00
21522;DHT22;10922;45.572;10.002;2023-02-03T10:30:27;9.20;1.00
21522;DHT22;10922;45.572;10.002;2023-02-03T10:32:54;9.40;1.00
21522;DHT22;10922;45.572;10.002;2023-02-03T10:35:27;9.40;1.00
21522;DHT22;10922;45.572;10.002;2023-02-03T10:37:57;9.40;1.00
21522;DHT22;10922;45.572;10.002;2023-02-03T10:40:25;9.60;1.00
21522;DHT22;10922;45.572;10.002;2023-02-03T10:42:51;9.60;1.00
21522;DHT22;10922;45.572;10.002;2023-02-03T11:03:34;9.80;1.00
21522;DHT22;10922;45.572;10.002;2023-02-03T11:06:09;9.80;1.00
21522;DHT22;10922;45.572;10.002;2023-02-03T11:08:37;9.90;1.00
21522;DHT22;10922;45.572;10.002;2023-02-03T11:11:29;9.80;1.00
21522;DHT22;10922;45.572;10.002;2023-02-03T11:14:10;9.80;1.00
21522;DHT22;10922;45.572;10.002;2023-02-03T11:16:37;10.10;1.00
21522;DHT22;10922;45.572;10.002;2023-02-03T11:19:05;10.10;1.00
21522;DHT22;10922;45.572;10.002;2023-02-03T11:24:08;10.50;1.00
21522;DHT22;10922;45.572;10.002;2023-02-03T11:26:48;10.60;1.00
21522;DHT22;10922;45.572;10.002;2023-02-03T11:29:26;10.60;1.00
21522;DHT22;10922;45.572;10.002;2023-02-03T11:31:57;10.50;1.00
21522;DHT22;10922;45.572;10.002;2023-02-03T11:34:35;10.50;1.00
21522;DHT22;10922;45.572;10.002;2023-02-03T11:40:10;10.60;1.00
21522;DHT22;10922;45.572;10.002;2023-02-03T11:42:42;10.70;1.00
21522;DHT22;10922;45.572;10.002;2023-02-03T11:45:41;10.80;1.00
21522;DHT22;10922;45.572;10.002;2023-02-03T11:48:31;10.80;1.00
21522;DHT22;10922;45.572;10.002;2023-02-03T11:51:34;10.90;1.00
21522;DHT22;10922;45.572;10.002;2023-02-03T11:57:02;10.70;1.00
21522;DHT22;10922;45.572;10.002;2023-02-03T12:00:01;10.90;1.00
21522;DHT22;10922;45.572;10.002;2023-02-03T12:11:06;10.80;1.00
21522;DHT22;10922;45.572;10.002;2023-02-03T12:13:50;11.00;1.00
21522;DHT22;10922;45.572;10.002;2023-02-03T12:16:36;11.30;1.00
21522;DHT22;10922;45.572;10.002;2023-02-03T12:30:41;11.60;1.00
21522;DHT22;10922;45.572;10.002;2023-02-03T12:33:20;11.80;1.00
21522;DHT22;10922;45.572;10.002;2023-02-03T12:35:55;14.90;1.00
21522;DHT22;10922;45.572;10.002;2023-02-03T12:39:07;16.40;1.00
21522;DHT22;10922;45.572;10.002;2023-02-03T12:41:41;17.20;1.00
21522;DHT22;10922;45.572;10.002;2023-02-03T12:44:21;17.40;99.90
21522;DHT22;10922;45.572;10.002;2023-02-03T12:46:54;17.90;99.90
21522;DHT22;10922;45.572;10.002;2023-02-03T12:49:32;17.50;99.90
21522;DHT22;10922;45.572;10.002;2023-02-03T12:52:16;17.20;99.90
21522;DHT22;10922;45.572;10.002;2023-02-03T12:54:52;18.00;99.90
21522;DHT22;10922;45.572;10.002;2023-02-03T12:58:04;18.10;99.90
21522;DHT22;10922;45.572;10.002;2023-02-03T13:06:05;18.00;99.90
21522;DHT22;10922;45.572;10.002;2023-02-03T17:51:21;10.70;99.90
21522;DHT22;10922;45.572;10.002;2023-02-03T17:53:51;10.60;99.90
21522;DHT22;10922;45.572;10.002;2023-02-03T17:56:22;10.60;99.90
21522;DHT22;10922;45.572;10.002;2023-02-03T17:58:54;10.60;99.90
21522;DHT22;10922;45.572;10.002;2023-02-03T18:01:20;10.70;99.90
21522;DHT22;10922;45.572;10.002;2023-02-03T18:03:51;10.30;99.90
21522;DHT22;10922;45.572;10.002;2023-02-03T18:06:24;10.10;99.90
21522;DHT22;10922;45.572;10.002;2023-02-03T18:08:53;10.40;99.90
21522;DHT22;10922;45.572;10.002;2023-02-03T18:11:29;10.70;99.90
21522;DHT22;10922;45.572;10.002;2023-02-03T18:13:55;10.80;99.90
21522;DHT22;10922;45.572;10.002;2023-02-03T18:16:23;10.80;99.90
21522;DHT22;10922;45.572;10.002;2023-02-03T18:19:01;10.80;99.90
21522;DHT22;10922;45.572;10.002;2023-02-03T18:21:36;10.80;99.90
21522;DHT22;10922;45.572;10.002;2023-02-03T18:24:02;10.90;99.90
21522;DHT22;10922;45.572;10.002;2023-02-03T18:26:34;10.40;99.90
21522;DHT22;10922;45.572;10.002;2023-02-03T18:29:04;10.40;99.90
21522;DHT22;10922;45.572;10.002;2023-02-03T18:31:31;10.30;99.90
21522;DHT22;10922;45.572;10.002;2023-02-03T18:34:00;10.50;99.90
21522;DHT22;10922;45.572;10.002;2023-02-03T18:36:27;10.00;99.90
21522;DHT22;10922;45.572;10.002;2023-02-03T18:38:52;10.30;99.90
21522;DHT22;10922;45.572;10.002;2023-02-03T18:41:23;10.30;99.90
21522;DHT22;10922;45.572;10.002;2023-02-03T18:43:49;10.10;99.90
21522;DHT22;10922;45.572;10.002;2023-02-03T18:46:18;10.20;99.90
21522;DHT22;10922;45.572;10.002;2023-02-03T18:48:44;10.50;99.90
21522;DHT22;10922;45.572;10.002;2023-02-03T18:51:13;10.50;99.90
21522;DHT22;10922;45.572;10.002;2023-02-03T18:53:39;10.50;99.90
21522;DHT22;10922;45.572;10.002;2023-02-03T18:56:06;10.30;99.90
21522;DHT22;10922;45.572;10.002;2023-02-03T18:58:33;10.00;99.90
21522;DHT22;10922;45.572;10.002;2023-02-03T19:00:59;10.20;99.90
21522;DHT22;10922;45.572;10.002;2023-02-03T19:03:26;10.20;99.90
21522;DHT22;10922;45.572;10.002;2023-02-03T19:05:52;10.40;99.90
21522;DHT22;10922;45.572;10.002;2023-02-03T19:08:18;10.20;99.90
21522;DHT22;10922;45.572;10.002;2023-02-03T19:10:51;10.40;99.90
21522;DHT22;10922;45.572;10.002;2023-02-03T19:13:21;10.50;99.90
21522;DHT22;10922;45.572;10.002;2023-02-03T19:15:47;10.00;99.90
21522;DHT22;10922;45.572;10.002;2023-02-03T19:18:13;9.80;99.90
21522;DHT22;10922;45.572;10.002;2023-02-03T19:20:42;10.00;99.90
21522;DHT22;10922;45.572;10.002;2023-02-03T19:23:08;10.10;99.90
21522;DHT22;10922;45.572;10.002;2023-02-03T19:25:36;10.10;99.90
21522;DHT22;10922;45.572;10.002;2023-02-03T19:28:02;10.20;99.90
21522;DHT22;10922;45.572;10.002;2023-02-03T19:30:29;9.70;99.90
21522;DHT22;10922;45.572;10.002;2023-02-03T19:32:59;9.70;99.90
21522;DHT22;10922;45.572;10.002;2023-02-03T19:35:25;9.60;99.90
21522;DHT22;10922;45.572;10.002;2023-02-03T19:37:51;9.20;99.90
21522;DHT22;10922;45.572;10.002;2023-02-03T19:40:18;9.20;99.90
21522;DHT22;10922;45.572;10.002;2023-02-03T19:42:45;8.90;1.00
21522;DHT22;10922;45.572;10.002;2023-02-03T19:45:26;9.50;99.90
21522;DHT22;10922;45.572;10.002;2023-02-03T19:47:52;9.60;99.90
21522;DHT22;10922;45.572;10.002;2023-02-03T19:50:18;9.60;99.90
21522;DHT22;10922;45.572;10.002;2023-02-03T19:52:44;9.60;99.90
21522;DHT22;10922;45.572;10.002;2023-02-03T19:55:12;9.50;99.90
21522;DHT22;10922;45.572;10.002;2023-02-03T19:57:38;9.50;99.90
21522;DHT22;10922;45.572;10.002;2023-02-03T20:00:05;9.40;99.90
21522;DHT22;10922;45.572;10.002;2023-02-03T20:02:30;9.40;1.00
21522;DHT22;10922;45.572;10.002;2023-02-03T20:04:56;9.50;99.90
21522;DHT22;10922;45.572;10.002;2023-02-03T20:07:22;9.30;1.00
21522;DHT22;10922;45.572;10.002;2023-02-03T20:09:49;9.30;99.90
21522;DHT22;10922;45.572;10.002;2023-02-03T20:12:14;9.30;99.90
21522;DHT22;10922;45.572;10.002;2023-02-03T20:14:43;9.40;99.90
21522;DHT22;10922;45.572;10.002;2023-02-03T20:17:09;9.40;99.90
21522;DHT22;10922;45.572;10.002;2023-02-03T20:19:35;9.40;99.90
21522;DHT22;10922;45.572;10.002;2023-02-03T20:22:00;9.30;99.90
21522;DHT22;10922;45.572;10.002;2023-02-03T20:24:26;9.30;99.90
21522;DHT22;10922;45.572;10.002;2023-02-03T20:26:53;9.20;99.90
21522;DHT22;10922;45.572;10.002;2023-02-03T20:29:20;9.20;99.90
21522;DHT22;10922;45.572;10.002;2023-02-03T20:31:47;9.00;99.90
21522;DHT22;10922;45.572;10.002;2023-02-03T20:34:12;9.30;99.90
21522;DHT22;10922;45.572;10.002;2023-02-03T20:36:38;9.00;99.90
21522;DHT22;10922;45.572;10.002;2023-02-03T20:39:05;9.20;99.90
21522;DHT22;10922;45.572;10.002;2023-02-03T20:41:31;9.00;99.90
21522;DHT22;10922;45.572;10.002;2023-02-03T20:43:56;9.30;99.90
21522;DHT22;10922;45.572;10.002;2023-02-03T20:46:22;9.10;99.90
21522;DHT22;10922;45.572;10.002;2023-02-03T20:48:48;9.40;99.90
21522;DHT22;10922;45.572;10.002;2023-02-03T20:51:15;9.20;99.90
21522;DHT22;10922;45.572;10.002;2023-02-03T20:53:41;9.20;99.90
21522;DHT22;10922;45.572;10.002;2023-02-03T20:56:13;9.40;99.90
21522;DHT22;10922;45.572;10.002;2023-02-03T20:58:43;9.40;99.90
21522;DHT22;10922;45.572;10.002;2023-02-03T21:01:13;9.20;99.90
21522;DHT22;10922;45.572;10.002;2023-02-03T21:03:39;9.10;99.90
21522;DHT22;10922;45.572;10.002;2023-02-03T21:06:23;9.10;1.00
21522;DHT22;10922;45.572;10.002;2023-02-03T21:08:50;9.10;99.90
21522;DHT22;10922;45.572;10.002;2023-02-03T21:11:20;9.20;99.90
21522;DHT22;10922;45.572;10.002;2023-02-03T21:13:51;9.50;99.90
21522;DHT22;10922;45.572;10.002;2023-02-03T21:16:19;9.50;99.90
21522;DHT22;10922;45.572;10.002;2023-02-03T21:18:54;9.50;99.90
21522;DHT22;10922;45.572;10.002;2023-02-03T21:21:37;9.60;99.90
21522;DHT22;10922;45.572;10.002;2023-02-03T21:24:31;9.50;99.90
21522;DHT22;10922;45.572;10.002;2023-02-03T21:26:58;9.30;99.90
21522;DHT22;10922;45.572;10.002;2023-02-03T21:29:32;9.40;99.90
21522;DHT22;10922;45.572;10.002;2023-02-03T21:31:58;9.50;99.90
21522;DHT22;10922;45.572;10.002;2023-02-03T21:34:34;9.70;99.90
21522;DHT22;10922;45.572;10.002;2023-02-03T21:37:57;9.20;99.90
21522;DHT22;10922;45.572;10.002;2023-02-03T21:39:57;9.20;1.00
21522;DHT22;10922;45.572;10.002;2023-02-03T21:42:35;8.90;99.90
21522;DHT22;10922;45.572;10.002;2023-02-03T21:45:34;8.80;99.90
21522;DHT22;10922;45.572;10.002;2023-02-03T21:50:46;8.80;99.90
21522;DHT22;10922;45.572;10.002;2023-02-03T21:55:39;9.00;1.00
21522;DHT22;10922;45.572;10.002;2023-02-03T22:00:47;9.10;1.00